createdAt,value
2019-05-20T00:01:10.444Z,11.70
2019-05-20T00:03:41.295Z,11.27
2019-05-20T00:06:12.219Z,12.57
2019-05-20T00:08:42.893Z,11.60
2019-05-20T00:11:13.576Z,12.97
2019-05-20T00:13:44.350Z,11.50
2019-05-20T00:16:15.364Z,11.00
2019-05-20T00:18:46.414Z,11.33
2019-05-20T00:21:18.184Z,12.13
2019-05-20T00:23:48.849Z,12.40
2019-05-20T00:26:19.837Z,12.07
2019-05-20T00:28:50.514Z,11.63
2019-05-20T00:31:21.271Z,11.30
2019-05-20T00:33:52.345Z,11.90
2019-05-20T00:36:23.147Z,11.27
2019-05-20T00:39:11.750Z,11.27
2019-05-20T00:41:43.169Z,11.63
2019-05-20T00:44:13.872Z,11.67
2019-05-20T00:46:45.598Z,11.57
2019-05-20T00:49:16.577Z,12.63
2019-05-20T00:51:47.326Z,11.70
2019-05-20T00:54:18.514Z,10.97
2019-05-20T00:56:53.128Z,11.43
2019-05-20T00:59:23.828Z,11.80
2019-05-20T01:01:55.780Z,12.23
2019-05-20T01:04:26.844Z,12.03
2019-05-20T01:06:57.851Z,11.83
2019-05-20T01:09:28.918Z,12.43
2019-05-20T01:11:59.652Z,13.03
2019-05-20T01:14:30.367Z,11.40
2019-05-20T01:17:01.069Z,12.87
2019-05-20T01:19:32.162Z,11.60
2019-05-20T01:22:02.817Z,12.10
2019-05-20T01:24:33.502Z,11.90
2019-05-20T01:27:05.156Z,11.93
2019-05-20T01:29:36.306Z,12.00
2019-05-20T01:32:07.266Z,11.57
2019-05-20T01:34:38.379Z,12.37
2019-05-20T01:37:09.456Z,11.57
2019-05-20T01:39:40.211Z,12.43
2019-05-20T01:42:11.208Z,12.87
2019-05-20T01:44:42.261Z,12.43
2019-05-20T01:47:13.566Z,12.07
2019-05-20T01:49:45.671Z,12.27
2019-05-20T01:52:16.423Z,11.87
2019-05-20T01:54:47.424Z,11.90
2019-05-20T01:57:18.105Z,13.13
2019-05-20T01:59:49.091Z,12.20
2019-05-20T02:02:19.784Z,12.70
2019-05-20T02:04:50.806Z,11.93
2019-05-20T02:07:21.539Z,12.43
2019-05-20T02:09:52.476Z,12.07
2019-05-20T02:12:23.228Z,12.53
2019-05-20T02:15:04.558Z,12.10
2019-05-20T02:17:35.603Z,11.57
2019-05-20T02:20:09.835Z,13.10
2019-05-20T02:22:40.533Z,12.90
2019-05-20T02:25:12.614Z,13.70
2019-05-20T02:27:43.265Z,13.53
2019-05-20T02:30:14.586Z,13.90
2019-05-20T02:32:45.268Z,12.73
2019-05-20T02:35:15.932Z,12.73
2019-05-20T02:37:46.607Z,13.33
2019-05-20T02:40:17.686Z,12.63
2019-05-20T02:42:48.401Z,12.53
2019-05-20T02:45:20.004Z,13.47
2019-05-20T02:47:50.711Z,13.27
2019-05-20T02:50:21.461Z,13.20
2019-05-20T02:52:52.154Z,13.07
2019-05-20T02:55:22.823Z,12.67
2019-05-20T02:57:53.870Z,12.93
2019-05-20T03:00:24.559Z,13.03
2019-05-20T03:02:55.415Z,13.03
2019-05-20T03:05:26.492Z,13.13
2019-05-20T03:07:57.521Z,13.63
2019-05-20T03:10:28.178Z,12.63
2019-05-20T03:12:59.211Z,13.30
2019-05-20T03:15:30.351Z,14.83
2019-05-20T03:18:01.126Z,14.77
2019-05-20T03:20:33.231Z,14.27
2019-05-20T03:23:04.269Z,13.90
2019-05-20T03:25:36.028Z,14.70
2019-05-20T03:28:06.730Z,15.40
2019-05-20T03:30:37.826Z,14.63
2019-05-20T03:33:08.950Z,13.97
2019-05-20T03:35:39.630Z,13.77
2019-05-20T03:38:10.410Z,14.27
2019-05-20T03:40:41.076Z,15.63
2019-05-20T03:43:11.768Z,14.67
2019-05-20T03:45:43.158Z,15.33
2019-05-20T03:48:14.206Z,14.20
2019-05-20T03:50:44.967Z,14.73
2019-05-20T03:53:15.644Z,15.20
2019-05-20T03:55:46.683Z,14.93
2019-05-20T03:58:17.377Z,15.57
2019-05-20T04:00:49.391Z,14.90
2019-05-20T04:03:20.049Z,13.93
2019-05-20T04:05:51.022Z,14.20
2019-05-20T04:08:21.698Z,13.60
2019-05-20T04:10:52.416Z,14.53
2019-05-20T04:13:23.410Z,15.57
2019-05-20T04:15:54.090Z,14.63
2019-05-20T04:18:24.830Z,15.03
2019-05-20T04:20:55.868Z,14.33
2019-05-20T04:23:27.040Z,13.63
2019-05-20T04:25:58.028Z,15.13
2019-05-20T04:28:29.127Z,14.00
2019-05-20T04:31:00.218Z,15.10
2019-05-20T04:33:30.920Z,14.70
2019-05-20T04:36:01.586Z,15.37
2019-05-20T04:38:32.302Z,14.80
2019-05-20T04:41:02.951Z,15.67
2019-05-20T04:43:33.993Z,16.13
2019-05-20T04:46:04.923Z,14.43
2019-05-20T04:48:35.623Z,16.37
2019-05-20T04:51:06.694Z,15.23
2019-05-20T04:53:37.381Z,15.23
2019-05-20T04:56:08.351Z,14.73
2019-05-20T04:58:39.031Z,15.90
2019-05-20T05:01:09.728Z,15.20
2019-05-20T05:03:41.109Z,16.10
2019-05-20T05:06:11.879Z,15.57
2019-05-20T05:08:42.841Z,15.87
2019-05-20T05:11:13.623Z,15.30
2019-05-20T05:13:44.613Z,15.37
2019-05-20T05:16:15.415Z,14.27
2019-05-20T05:18:46.494Z,14.43
2019-05-20T05:21:17.422Z,15.43
2019-05-20T05:23:58.729Z,14.83
2019-05-20T05:26:20.938Z,15.13
2019-05-20T05:28:51.784Z,14.80
2019-05-20T05:31:22.600Z,15.00
2019-05-20T05:33:54.442Z,15.50
2019-05-20T05:36:25.349Z,14.93
2019-05-20T05:38:56.361Z,13.93
2019-05-20T05:41:27.127Z,14.90
2019-05-20T05:43:58.115Z,14.83
2019-05-20T05:46:30.068Z,14.20
2019-05-20T05:49:01.719Z,13.63
2019-05-20T05:51:32.413Z,15.27
2019-05-20T05:54:03.405Z,14.23
2019-05-20T05:56:34.376Z,14.43
2019-05-20T05:59:05.320Z,14.77
2019-05-20T06:01:36.000Z,15.00
2019-05-20T06:04:06.977Z,13.07
2019-05-20T06:06:37.718Z,14.97
2019-05-20T06:09:09.046Z,14.00
2019-05-20T06:11:39.731Z,13.33
2019-05-20T06:14:10.429Z,14.33
2019-05-20T06:16:41.108Z,14.47
2019-05-20T06:19:11.803Z,13.60
2019-05-20T06:21:43.924Z,14.10
2019-05-20T06:24:15.115Z,14.13
2019-05-20T06:26:46.102Z,14.80
2019-05-20T06:29:17.774Z,14.47
2019-05-20T06:31:48.813Z,14.27
2019-05-20T06:34:19.710Z,13.43
2019-05-20T06:36:52.554Z,13.57
2019-05-20T06:39:23.609Z,14.73
2019-05-20T06:41:54.893Z,14.30
2019-05-20T06:44:25.958Z,13.30
2019-05-20T06:46:56.983Z,13.17
2019-05-20T06:49:28.033Z,13.30
2019-05-20T06:51:58.725Z,13.60
2019-05-20T06:54:29.425Z,13.10
2019-05-20T06:57:00.216Z,14.13
2019-05-20T06:59:30.878Z,13.50
2019-05-20T07:02:01.624Z,13.17
2019-05-20T07:04:32.716Z,13.37
2019-05-20T07:07:12.439Z,12.03
2019-05-20T07:09:35.781Z,13.30
2019-05-20T07:12:06.612Z,12.63
2019-05-20T07:14:37.319Z,12.30
2019-05-20T07:17:08.002Z,12.30
2019-05-20T07:19:38.700Z,13.23
2019-05-20T07:22:09.378Z,12.00
2019-05-20T07:24:40.102Z,11.53
2019-05-20T07:27:10.886Z,12.27
2019-05-20T07:29:41.910Z,11.63
2019-05-20T07:32:12.952Z,11.83
2019-05-20T07:34:43.987Z,11.27
2019-05-20T07:37:15.042Z,11.27
2019-05-20T07:39:46.075Z,11.60
2019-05-20T07:42:16.746Z,11.40
2019-05-20T07:44:47.753Z,11.83
2019-05-20T07:47:18.501Z,11.50
2019-05-20T07:49:51.089Z,11.40
2019-05-20T07:52:24.377Z,12.00
2019-05-20T07:54:58.083Z,12.60
2019-05-20T07:57:33.365Z,11.60
2019-05-20T08:00:06.005Z,11.60
2019-05-20T08:02:37.253Z,11.60
2019-05-20T08:05:10.050Z,11.17
2019-05-20T08:07:51.806Z,11.83
2019-05-20T08:10:13.948Z,10.67
2019-05-20T08:12:44.782Z,12.00
2019-05-20T08:15:17.437Z,11.17
2019-05-20T08:17:48.480Z,11.63
2019-05-20T08:20:20.663Z,14.80
2019-05-20T08:22:51.374Z,12.03
2019-05-20T08:25:22.531Z,12.53
2019-05-20T08:27:53.276Z,11.67
2019-05-20T08:30:37.109Z,12.17
2019-05-20T08:33:08.273Z,12.57
2019-05-20T08:35:39.131Z,11.63
2019-05-20T08:38:09.956Z,12.13
2019-05-20T08:40:42.404Z,12.30
2019-05-20T08:43:14.438Z,11.73
2019-05-20T08:45:45.185Z,12.60
2019-05-20T08:48:16.219Z,12.83
2019-05-20T08:50:47.307Z,12.70
2019-05-20T08:53:18.130Z,12.37
2019-05-20T08:55:48.913Z,13.37
2019-05-20T08:58:19.658Z,11.80
2019-05-20T09:00:50.748Z,11.30
2019-05-20T09:03:21.608Z,12.47
2019-05-20T09:05:52.554Z,11.50
2019-05-20T09:08:23.389Z,13.20
2019-05-20T09:10:54.059Z,11.70
2019-05-20T09:13:24.768Z,12.23
2019-05-20T09:15:56.406Z,12.17
2019-05-20T09:18:27.184Z,12.07
2019-05-20T09:20:58.176Z,12.57
2019-05-20T09:23:28.987Z,12.50
2019-05-20T09:26:00.295Z,12.30
2019-05-20T09:28:31.422Z,12.33
2019-05-20T09:31:02.715Z,12.40
2019-05-20T09:33:35.246Z,12.70
2019-05-20T09:36:06.447Z,13.80
2019-05-20T09:38:37.281Z,12.63
2019-05-20T09:41:08.476Z,12.20
2019-05-20T09:43:39.262Z,13.00
2019-05-20T09:46:10.340Z,11.50
2019-05-20T09:48:41.070Z,11.73
2019-05-20T09:51:11.796Z,12.17
2019-05-20T09:53:42.603Z,12.57
2019-05-20T09:56:13.347Z,11.87
2019-05-20T09:58:44.137Z,14.70
2019-05-20T10:01:15.932Z,13.00
2019-05-20T10:03:47.337Z,13.03
2019-05-20T10:06:18.390Z,14.57
2019-05-20T10:08:49.077Z,14.40
2019-05-20T10:11:19.829Z,10.80
2019-05-20T10:13:50.957Z,11.37
2019-05-20T10:16:21.866Z,10.23
2019-05-20T10:18:55.281Z,10.67
2019-05-20T10:21:24.981Z,9.50
2019-05-20T10:23:55.785Z,10.83
2019-05-20T10:26:26.465Z,11.10
2019-05-20T10:28:57.271Z,10.53
2019-05-20T10:31:27.982Z,11.67
2019-05-20T10:33:58.633Z,11.17
2019-05-20T10:36:29.693Z,10.37
2019-05-20T10:39:01.438Z,10.10
2019-05-20T10:41:34.118Z,12.27
2019-05-20T10:44:05.079Z,10.60
2019-05-20T10:46:36.193Z,11.73
2019-05-20T10:49:07.291Z,11.23
2019-05-20T10:51:38.317Z,11.50
2019-05-20T10:54:09.061Z,10.90
2019-05-20T10:56:39.787Z,11.37
2019-05-20T10:59:12.142Z,12.13
2019-05-20T11:01:42.861Z,11.10
2019-05-20T11:04:13.896Z,12.03
2019-05-20T11:06:44.708Z,11.50
2019-05-20T11:09:15.387Z,11.30
2019-05-20T11:11:46.546Z,11.07
2019-05-20T11:14:17.217Z,12.60
2019-05-20T11:16:47.928Z,12.33
2019-05-20T11:19:18.951Z,12.23
2019-05-20T11:21:49.992Z,12.20
2019-05-20T11:24:21.008Z,12.50
2019-05-20T11:26:51.987Z,13.67
2019-05-20T11:29:23.108Z,13.20
2019-05-20T11:31:54.751Z,14.07
2019-05-20T11:34:25.914Z,13.57
2019-05-20T11:36:56.871Z,14.17
2019-05-20T11:39:33.133Z,12.83
2019-05-20T11:41:59.949Z,14.47
2019-05-20T11:44:31.085Z,13.90
2019-05-20T11:47:01.785Z,13.97
2019-05-20T11:49:33.105Z,15.10
2019-05-20T11:52:04.261Z,14.37
2019-05-20T11:54:35.158Z,13.70
2019-05-20T11:57:06.185Z,14.63
2019-05-20T11:59:37.210Z,14.27
2019-05-20T12:02:08.013Z,14.80
2019-05-20T12:04:39.161Z,15.50
2019-05-20T12:07:10.977Z,16.57
2019-05-20T12:09:49.799Z,16.43
2019-05-20T12:12:14.182Z,15.23
2019-05-20T12:14:44.977Z,16.50
2019-05-20T12:17:16.038Z,15.90
2019-05-20T12:19:46.742Z,16.47
2019-05-20T12:22:17.565Z,17.43
2019-05-20T12:24:48.257Z,16.20
2019-05-20T12:27:18.927Z,16.20
2019-05-20T12:29:49.659Z,16.80
2019-05-20T12:32:20.340Z,17.50
2019-05-20T12:34:51.381Z,17.57
2019-05-20T12:37:22.056Z,18.80
2019-05-20T12:40:06.417Z,18.77
2019-05-20T12:42:25.159Z,19.00
2019-05-20T12:44:55.882Z,19.73
2019-05-20T12:47:27.037Z,18.47
2019-05-20T12:49:57.745Z,19.23
2019-05-20T12:52:28.442Z,19.47
2019-05-20T12:55:08.027Z,20.37
2019-05-20T12:57:31.988Z,21.87
2019-05-20T13:00:02.801Z,20.80
2019-05-20T13:02:34.973Z,22.97
2019-05-20T13:05:08.145Z,23.20
2019-05-20T13:07:39.035Z,23.70
2019-05-20T13:10:28.209Z,24.27
2019-05-20T13:12:44.255Z,24.27
2019-05-20T13:15:17.113Z,23.33
2019-05-20T13:17:47.868Z,23.87
2019-05-20T13:20:19.112Z,25.50
2019-05-20T13:22:50.029Z,24.40
2019-05-20T13:25:20.898Z,24.50
2019-05-20T13:27:51.612Z,24.40
2019-05-20T13:30:24.128Z,24.63
2019-05-20T13:32:54.855Z,25.07
2019-05-20T13:35:26.002Z,24.93
2019-05-20T13:37:57.157Z,25.37
2019-05-20T13:40:45.080Z,25.37
2019-05-20T13:43:00.329Z,24.67
2019-05-20T13:45:31.499Z,24.50
2019-05-20T13:48:02.192Z,23.80
2019-05-20T13:50:33.510Z,24.50
2019-05-20T13:53:04.256Z,22.00
2019-05-20T13:55:35.341Z,21.30
2019-05-20T13:58:06.101Z,23.37
2019-05-20T14:00:37.110Z,23.80
2019-05-20T14:03:07.858Z,24.13
2019-05-20T14:05:38.950Z,24.93
2019-05-20T14:08:09.785Z,12.33
2019-05-20T14:10:40.611Z,10.53
2019-05-20T14:13:11.973Z,6.53
2019-05-20T14:15:43.232Z,6.80
2019-05-20T14:18:14.390Z,3.80
2019-05-20T14:20:45.093Z,3.70
2019-05-20T14:23:16.243Z,3.17
2019-05-20T14:25:47.435Z,3.10
2019-05-20T14:28:18.123Z,2.70
2019-05-20T14:30:49.237Z,3.77
2019-05-20T14:33:20.268Z,2.83
2019-05-20T14:35:50.951Z,3.43
2019-05-20T14:38:21.995Z,3.07
2019-05-20T14:40:52.854Z,4.07
2019-05-20T14:43:23.590Z,10.07
2019-05-20T14:45:54.314Z,3.27
2019-05-20T14:48:25.054Z,2.77
2019-05-20T14:50:55.726Z,2.90
2019-05-20T14:53:26.533Z,3.87
2019-05-20T14:55:57.240Z,6.27
2019-05-20T14:58:27.900Z,4.90
2019-05-20T15:00:58.622Z,6.07
2019-05-20T15:03:29.356Z,3.00
2019-05-20T15:06:00.412Z,4.50
2019-05-20T15:08:34.322Z,2.70
2019-05-20T15:11:03.842Z,2.83
2019-05-20T15:13:35.128Z,2.83
2019-05-20T15:16:06.220Z,2.23
2019-05-20T15:18:37.249Z,2.43
2019-05-20T15:21:08.398Z,3.40
2019-05-20T15:23:39.539Z,4.70
2019-05-20T15:26:10.589Z,3.73
2019-05-20T15:28:41.251Z,4.83
2019-05-20T15:31:12.243Z,3.00
2019-05-20T15:33:42.974Z,2.70
2019-05-20T15:36:14.071Z,4.13
2019-05-20T15:38:44.845Z,3.90
2019-05-20T15:41:15.544Z,3.50
2019-05-20T15:43:46.282Z,4.30
2019-05-20T15:46:16.955Z,3.07
2019-05-20T15:48:47.653Z,3.43
2019-05-20T15:51:18.618Z,3.07
2019-05-20T15:53:50.720Z,2.53
2019-05-20T15:56:21.774Z,3.73
2019-05-20T15:58:53.697Z,2.97
2019-05-20T16:01:24.664Z,3.70
2019-05-20T16:03:55.344Z,4.77
2019-05-20T16:06:26.409Z,3.80
2019-05-20T16:08:57.558Z,3.30
2019-05-20T16:11:28.435Z,4.37
2019-05-20T16:13:59.630Z,3.30
2019-05-20T16:16:30.334Z,3.20
2019-05-20T16:19:00.987Z,3.37
2019-05-20T16:21:32.030Z,3.63
2019-05-20T16:24:02.768Z,3.33
2019-05-20T16:26:34.659Z,3.90
2019-05-20T16:29:05.612Z,3.63
2019-05-20T16:31:36.502Z,3.73
2019-05-20T16:34:07.568Z,4.50
2019-05-20T16:36:38.515Z,4.07
2019-05-20T16:39:09.278Z,3.73
2019-05-20T16:41:40.253Z,9.73
2019-05-20T16:44:11.399Z,9.37
2019-05-20T16:46:42.436Z,6.73
2019-05-20T16:49:13.824Z,7.90
2019-05-20T16:51:44.835Z,13.83
2019-05-20T16:54:15.880Z,6.63
2019-05-20T16:56:46.554Z,6.20
2019-05-20T16:59:17.617Z,5.20
2019-05-20T17:01:48.549Z,6.50
2019-05-20T17:04:19.702Z,6.63
2019-05-20T17:06:50.752Z,6.47
2019-05-20T17:09:22.041Z,5.57
2019-05-20T17:11:52.803Z,5.63
2019-05-20T17:14:23.474Z,5.50
2019-05-20T17:16:54.247Z,7.87
2019-05-20T17:19:25.229Z,6.20
2019-05-20T17:21:55.946Z,5.67
2019-05-20T17:24:26.708Z,5.80
2019-05-20T17:26:57.410Z,5.60
2019-05-20T17:29:28.551Z,5.47
2019-05-20T17:32:00.640Z,5.60
2019-05-20T17:34:32.701Z,5.60
2019-05-20T17:37:03.639Z,5.80
2019-05-20T17:39:34.368Z,6.23
2019-05-20T17:42:05.752Z,5.27
2019-05-20T17:44:38.044Z,6.43
2019-05-20T17:47:08.974Z,5.93
2019-05-20T17:49:39.736Z,5.57
2019-05-20T17:52:10.503Z,6.07
2019-05-20T17:54:44.023Z,6.10
2019-05-20T17:57:14.844Z,6.33
2019-05-20T17:59:45.879Z,6.53
2019-05-20T18:02:17.232Z,6.73
2019-05-20T18:04:48.270Z,6.50
2019-05-20T18:07:19.294Z,6.00
2019-05-20T18:09:52.287Z,6.13
2019-05-20T18:12:24.340Z,5.70
2019-05-20T18:14:56.987Z,5.80
2019-05-20T18:17:27.658Z,6.10
2019-05-20T18:19:58.725Z,6.10
2019-05-20T18:22:29.540Z,6.07
2019-05-20T18:25:00.472Z,5.27
2019-05-20T18:27:31.737Z,5.80
2019-05-20T18:30:03.720Z,5.27
2019-05-20T18:32:34.710Z,5.43
2019-05-20T18:35:07.554Z,5.77
2019-05-20T18:37:38.635Z,6.63
2019-05-20T18:40:14.400Z,6.50
2019-05-20T18:42:43.773Z,5.80
2019-05-20T18:45:15.626Z,6.47
2019-05-20T18:47:46.602Z,6.27
2019-05-20T18:50:17.791Z,5.93
2019-05-20T18:52:48.965Z,5.73
2019-05-20T18:55:20.024Z,6.40
2019-05-20T18:57:51.629Z,6.73
2019-05-20T19:00:24.445Z,7.13
2019-05-20T19:02:55.402Z,6.63
2019-05-20T19:05:26.334Z,7.20
2019-05-20T19:07:57.474Z,8.00
2019-05-20T19:10:29.463Z,7.50
2019-05-20T19:13:00.680Z,7.37
2019-05-20T19:15:31.712Z,7.63
2019-05-20T19:18:03.711Z,7.93
2019-05-20T19:20:34.457Z,8.07
2019-05-20T19:23:05.166Z,8.87
2019-05-20T19:25:38.057Z,9.17
2019-05-20T19:28:09.087Z,9.53
2019-05-20T19:30:39.905Z,9.93
2019-05-20T19:33:10.932Z,10.47
2019-05-20T19:35:42.069Z,9.93
2019-05-20T19:38:13.245Z,10.53
2019-05-20T19:40:45.615Z,9.53
2019-05-20T19:43:16.373Z,10.60
2019-05-20T19:45:47.476Z,10.60
2019-05-20T19:48:18.162Z,10.63
2019-05-20T19:50:49.238Z,10.60
2019-05-20T19:53:20.412Z,11.53
2019-05-20T19:55:51.422Z,11.63
2019-05-20T19:58:22.166Z,11.10
2019-05-20T20:00:56.565Z,12.30
2019-05-20T20:03:25.640Z,11.77
2019-05-20T20:05:56.629Z,10.20
2019-05-20T20:08:27.377Z,9.90
2019-05-20T20:10:58.423Z,10.50
2019-05-20T20:13:29.442Z,10.53
2019-05-20T20:16:00.138Z,12.33
2019-05-20T20:18:31.217Z,11.97
2019-05-20T20:21:02.009Z,12.73
2019-05-20T20:23:33.018Z,13.23
2019-05-20T20:26:03.753Z,13.37
2019-05-20T20:28:34.934Z,13.20
2019-05-20T20:31:05.827Z,11.73
2019-05-20T20:33:36.722Z,12.33
2019-05-20T20:36:08.600Z,11.77
2019-05-20T20:38:39.751Z,12.10
2019-05-20T20:41:10.787Z,12.30
2019-05-20T20:43:42.192Z,13.40
2019-05-20T20:46:14.036Z,13.37
2019-05-20T20:48:44.898Z,15.43
2019-05-20T20:53:43.114Z,16.23
2019-05-20T20:56:24.634Z,14.30
2019-05-20T20:58:46.411Z,14.07
2019-05-20T21:01:17.659Z,15.30
2019-05-20T21:03:48.732Z,17.83
2019-05-20T21:06:19.886Z,17.10
2019-05-20T21:08:50.719Z,16.93
2019-05-20T21:11:22.139Z,15.90
2019-05-20T21:13:53.229Z,17.70
2019-05-20T21:16:24.095Z,18.57
2019-05-20T21:18:54.890Z,17.67
2019-05-20T21:21:25.901Z,16.83
2019-05-20T21:23:56.611Z,17.57
2019-05-20T21:26:28.405Z,17.33
2019-05-20T21:28:59.198Z,15.53
2019-05-20T21:31:31.444Z,16.70
2019-05-20T21:34:02.523Z,16.60
2019-05-20T21:36:46.540Z,16.97
2019-05-20T21:39:07.470Z,17.53
2019-05-20T21:41:38.663Z,15.77
2019-05-20T21:44:09.464Z,15.60
2019-05-20T21:46:40.627Z,15.93
2019-05-20T21:49:12.323Z,15.33
2019-05-20T21:51:43.078Z,14.03
2019-05-20T21:54:14.140Z,13.07
2019-05-20T21:56:44.896Z,15.20
2019-05-20T21:59:15.691Z,15.10
2019-05-20T22:01:46.703Z,14.80
2019-05-20T22:04:17.784Z,15.00
2019-05-20T22:06:48.473Z,13.10
2019-05-20T22:09:19.170Z,14.97
2019-05-20T22:11:49.945Z,12.80
2019-05-20T22:14:20.902Z,14.00
2019-05-20T22:16:51.637Z,13.60
2019-05-20T22:19:22.832Z,14.03
2019-05-20T22:21:57.964Z,14.10
2019-05-20T22:24:29.028Z,13.53
2019-05-20T22:27:00.107Z,14.10
2019-05-20T22:29:30.822Z,13.70
2019-05-20T22:32:01.840Z,13.93
2019-05-20T22:34:32.894Z,14.37
2019-05-20T22:37:04.001Z,14.17
2019-05-20T22:39:35.027Z,14.40
2019-05-20T22:42:05.976Z,13.93
2019-05-20T22:44:37.052Z,14.40
2019-05-20T22:47:07.775Z,14.17
2019-05-20T22:49:38.864Z,13.10
2019-05-20T22:52:09.855Z,13.70
2019-05-20T22:54:40.937Z,13.30
2019-05-20T22:57:13.112Z,13.30
2019-05-20T22:59:44.120Z,12.20
2019-05-20T23:02:15.163Z,13.07
2019-05-20T23:04:46.233Z,13.27
2019-05-20T23:07:17.136Z,13.50
2019-05-20T23:09:48.264Z,12.77
2019-05-20T23:12:19.340Z,14.23
2019-05-20T23:14:50.036Z,13.40
2019-05-20T23:17:21.040Z,13.00
2019-05-20T23:19:51.785Z,12.63
2019-05-20T23:22:22.770Z,13.03
2019-05-20T23:24:53.518Z,12.43
2019-05-20T23:27:24.521Z,12.50
2019-05-20T23:29:55.211Z,11.97
2019-05-20T23:32:25.879Z,11.20
2019-05-20T23:34:56.843Z,12.53
2019-05-20T23:37:28.275Z,11.40
2019-05-20T23:39:59.017Z,12.47
2019-05-20T23:42:30.088Z,12.10
2019-05-20T23:45:01.122Z,12.03
2019-05-20T23:47:31.906Z,12.63
2019-05-20T23:50:02.670Z,12.77
2019-05-20T23:52:33.413Z,12.13
2019-05-20T23:55:05.833Z,12.23
2019-05-20T23:57:36.574Z,12.87
